sensor_id;sensor_type;location;lat;lon;timestamp;P1;durP1;ratioP1;P2;durP2;ratioP2
635;SDS011;302;50.206;8.196;2023-03-14T00:01:13;3.80;;;3.60;;
635;SDS011;302;50.206;8.196;2023-03-14T00:03:38;4.50;;;4.10;;
635;SDS011;302;50.206;8.196;2023-03-14T00:06:04;5.23;;;4.73;;
635;SDS011;302;50.206;8.196;2023-03-14T00:08:30;4.25;;;3.95;;
635;SDS011;302;50.206;8.196;2023-03-14T00:10:55;6.50;;;4.40;;
635;SDS011;302;50.206;8.196;2023-03-14T00:13:20;4.47;;;4.17;;
635;SDS011;302;50.206;8.196;2023-03-14T00:15:45;6.25;;;4.40;;
635;SDS011;302;50.206;8.196;2023-03-14T00:18:10;4.97;;;4.57;;
635;SDS011;302;50.206;8.196;2023-03-14T00:20:35;5.10;;;4.00;;
635;SDS011;302;50.206;8.196;2023-03-14T00:23:01;5.35;;;4.95;;
635;SDS011;302;50.206;8.196;2023-03-14T00:25:27;5.50;;;5.10;;
635;SDS011;302;50.206;8.196;2023-03-14T00:27:52;6.00;;;5.45;;
635;SDS011;302;50.206;8.196;2023-03-14T00:30:17;6.50;;;5.70;;
635;SDS011;302;50.206;8.196;2023-03-14T00:32:42;5.83;;;5.40;;
635;SDS011;302;50.206;8.196;2023-03-14T00:35:08;5.70;;;5.17;;
635;SDS011;302;50.206;8.196;2023-03-14T00:37:33;5.53;;;5.07;;
635;SDS011;302;50.206;8.196;2023-03-14T00:39:58;6.38;;;5.80;;
635;SDS011;302;50.206;8.196;2023-03-14T00:42:23;7.60;;;5.70;;
635;SDS011;302;50.206;8.196;2023-03-14T00:44:48;6.33;;;5.77;;
635;SDS011;302;50.206;8.196;2023-03-14T00:47:14;8.43;;;5.57;;
635;SDS011;302;50.206;8.196;2023-03-14T00:49:39;7.65;;;5.85;;
635;SDS011;302;50.206;8.196;2023-03-14T00:52:04;5.83;;;5.33;;
635;SDS011;302;50.206;8.196;2023-03-14T00:54:29;5.40;;;5.00;;
635;SDS011;302;50.206;8.196;2023-03-14T00:56:55;6.60;;;5.70;;
635;SDS011;302;50.206;8.196;2023-03-14T00:59:20;7.00;;;5.60;;
635;SDS011;302;50.206;8.196;2023-03-14T01:01:45;6.83;;;5.17;;
635;SDS011;302;50.206;8.196;2023-03-14T01:04:11;4.50;;;4.20;;
635;SDS011;302;50.206;8.196;2023-03-14T01:06:36;5.40;;;4.90;;
635;SDS011;302;50.206;8.196;2023-03-14T01:09:01;6.77;;;4.87;;
635;SDS011;302;50.206;8.196;2023-03-14T01:11:27;6.80;;;5.03;;
635;SDS011;302;50.206;8.196;2023-03-14T01:13:53;7.47;;;4.60;;
635;SDS011;302;50.206;8.196;2023-03-14T01:16:19;4.50;;;4.10;;
635;SDS011;302;50.206;8.196;2023-03-14T01:18:44;5.32;;;4.60;;
635;SDS011;302;50.206;8.196;2023-03-14T01:21:11;8.50;;;5.00;;
635;SDS011;302;50.206;8.196;2023-03-14T01:23:36;5.68;;;4.85;;
635;SDS011;302;50.206;8.196;2023-03-14T01:26:02;5.60;;;4.57;;
635;SDS011;302;50.206;8.196;2023-03-14T01:28:27;7.47;;;6.07;;
635;SDS011;302;50.206;8.196;2023-03-14T01:30:52;6.75;;;6.07;;
635;SDS011;302;50.206;8.196;2023-03-14T01:33:17;11.27;;;6.90;;
635;SDS011;302;50.206;8.196;2023-03-14T01:35:42;8.50;;;7.60;;
635;SDS011;302;50.206;8.196;2023-03-14T01:38:07;6.45;;;5.20;;
635;SDS011;302;50.206;8.196;2023-03-14T01:40:32;5.78;;;5.28;;
635;SDS011;302;50.206;8.196;2023-03-14T01:43:04;6.22;;;5.63;;
635;SDS011;302;50.206;8.196;2023-03-14T01:48:14;5.72;;;4.85;;
635;SDS011;302;50.206;8.196;2023-03-14T01:50:39;6.63;;;4.80;;
635;SDS011;302;50.206;8.196;2023-03-14T01:53:04;6.00;;;5.30;;
635;SDS011;302;50.206;8.196;2023-03-14T01:55:29;5.70;;;4.90;;
635;SDS011;302;50.206;8.196;2023-03-14T01:57:58;7.20;;;4.80;;
635;SDS011;302;50.206;8.196;2023-03-14T02:00:25;7.13;;;4.85;;
635;SDS011;302;50.206;8.196;2023-03-14T02:02:51;6.57;;;4.77;;
635;SDS011;302;50.206;8.196;2023-03-14T02:05:19;6.00;;;4.85;;
635;SDS011;302;50.206;8.196;2023-03-14T02:07:55;7.57;;;5.38;;
635;SDS011;302;50.206;8.196;2023-03-14T02:10:22;7.28;;;5.70;;
635;SDS011;302;50.206;8.196;2023-03-14T02:12:48;6.88;;;6.28;;
635;SDS011;302;50.206;8.196;2023-03-14T02:15:13;9.70;;;6.28;;
635;SDS011;302;50.206;8.196;2023-03-14T02:17:40;8.20;;;6.03;;
635;SDS011;302;50.206;8.196;2023-03-14T02:22:31;7.28;;;6.00;;
635;SDS011;302;50.206;8.196;2023-03-14T02:25:05;6.93;;;5.37;;
635;SDS011;302;50.206;8.196;2023-03-14T02:27:32;5.10;;;4.57;;
635;SDS011;302;50.206;8.196;2023-03-14T02:32:24;5.38;;;4.72;;
635;SDS011;302;50.206;8.196;2023-03-14T02:34:51;4.80;;;4.10;;
635;SDS011;302;50.206;8.196;2023-03-14T02:37:17;6.03;;;4.10;;
635;SDS011;302;50.206;8.196;2023-03-14T02:39:44;5.05;;;4.28;;
635;SDS011;302;50.206;8.196;2023-03-14T02:42:09;5.70;;;5.13;;
635;SDS011;302;50.206;8.196;2023-03-14T02:44:35;4.73;;;4.13;;
635;SDS011;302;50.206;8.196;2023-03-14T02:47:00;7.13;;;5.40;;
635;SDS011;302;50.206;8.196;2023-03-14T02:49:25;4.50;;;4.10;;
635;SDS011;302;50.206;8.196;2023-03-14T02:51:52;5.45;;;4.95;;
635;SDS011;302;50.206;8.196;2023-03-14T02:54:17;4.47;;;4.07;;
635;SDS011;302;50.206;8.196;2023-03-14T02:56:44;4.93;;;4.20;;
635;SDS011;302;50.206;8.196;2023-03-14T02:59:09;6.00;;;4.33;;
635;SDS011;302;50.206;8.196;2023-03-14T03:01:34;4.63;;;4.20;;
635;SDS011;302;50.206;8.196;2023-03-14T03:03:59;6.32;;;4.10;;
635;SDS011;302;50.206;8.196;2023-03-14T03:06:24;3.88;;;3.42;;
635;SDS011;302;50.206;8.196;2023-03-14T03:08:50;6.63;;;3.47;;
635;SDS011;302;50.206;8.196;2023-03-14T03:11:15;5.30;;;3.55;;
635;SDS011;302;50.206;8.196;2023-03-14T03:13:40;6.33;;;3.20;;
635;SDS011;302;50.206;8.196;2023-03-14T03:16:05;5.63;;;3.92;;
635;SDS011;302;50.206;8.196;2023-03-14T03:18:30;6.20;;;3.80;;
635;SDS011;302;50.206;8.196;2023-03-14T03:20:59;6.10;;;2.77;;
635;SDS011;302;50.206;8.196;2023-03-14T03:23:24;8.00;;;3.30;;
635;SDS011;302;50.206;8.196;2023-03-14T03:25:49;4.80;;;3.35;;
635;SDS011;302;50.206;8.196;2023-03-14T03:28:15;2.70;;;2.37;;
635;SDS011;302;50.206;8.196;2023-03-14T03:30:40;2.83;;;2.40;;
635;SDS011;302;50.206;8.196;2023-03-14T03:33:06;6.50;;;2.43;;
635;SDS011;302;50.206;8.196;2023-03-14T03:35:31;5.77;;;2.17;;
635;SDS011;302;50.206;8.196;2023-03-14T03:37:57;4.80;;;2.03;;
635;SDS011;302;50.206;8.196;2023-03-14T03:40:22;2.97;;;2.00;;
635;SDS011;302;50.206;8.196;2023-03-14T03:42:47;3.10;;;2.30;;
635;SDS011;302;50.206;8.196;2023-03-14T03:45:12;2.80;;;2.08;;
635;SDS011;302;50.206;8.196;2023-03-14T03:47:37;3.35;;;2.10;;
635;SDS011;302;50.206;8.196;2023-03-14T03:50:03;3.20;;;2.30;;
635;SDS011;302;50.206;8.196;2023-03-14T03:52:28;3.63;;;2.80;;
635;SDS011;302;50.206;8.196;2023-03-14T03:54:53;3.65;;;1.92;;
635;SDS011;302;50.206;8.196;2023-03-14T03:57:18;4.13;;;2.70;;
635;SDS011;302;50.206;8.196;2023-03-14T03:59:43;2.38;;;1.98;;
635;SDS011;302;50.206;8.196;2023-03-14T04:02:08;3.40;;;2.55;;
635;SDS011;302;50.206;8.196;2023-03-14T04:04:34;3.10;;;2.22;;
635;SDS011;302;50.206;8.196;2023-03-14T04:06:59;5.83;;;2.70;;
635;SDS011;302;50.206;8.196;2023-03-14T04:09:24;5.00;;;2.97;;
635;SDS011;302;50.206;8.196;2023-03-14T04:11:49;3.20;;;2.07;;
635;SDS011;302;50.206;8.196;2023-03-14T04:14:14;5.03;;;2.20;;
635;SDS011;302;50.206;8.196;2023-03-14T04:16:39;4.93;;;2.40;;
635;SDS011;302;50.206;8.196;2023-03-14T04:19:05;5.50;;;2.30;;
635;SDS011;302;50.206;8.196;2023-03-14T04:21:30;2.83;;;2.10;;
635;SDS011;302;50.206;8.196;2023-03-14T04:23:55;3.20;;;2.15;;
635;SDS011;302;50.206;8.196;2023-03-14T04:26:20;3.28;;;2.13;;
635;SDS011;302;50.206;8.196;2023-03-14T04:28:45;2.60;;;1.85;;
635;SDS011;302;50.206;8.196;2023-03-14T04:31:11;2.00;;;1.60;;
635;SDS011;302;50.206;8.196;2023-03-14T04:33:37;3.10;;;1.77;;
635;SDS011;302;50.206;8.196;2023-03-14T04:36:03;3.03;;;1.73;;
635;SDS011;302;50.206;8.196;2023-03-14T04:38:28;4.32;;;1.70;;
635;SDS011;302;50.206;8.196;2023-03-14T04:40:53;3.70;;;1.70;;
635;SDS011;302;50.206;8.196;2023-03-14T04:43:18;2.95;;;2.25;;
635;SDS011;302;50.206;8.196;2023-03-14T04:45:44;3.58;;;1.95;;
635;SDS011;302;50.206;8.196;2023-03-14T04:48:09;3.70;;;1.87;;
635;SDS011;302;50.206;8.196;2023-03-14T04:50:34;2.60;;;1.80;;
635;SDS011;302;50.206;8.196;2023-03-14T04:52:59;5.13;;;1.77;;
635;SDS011;302;50.206;8.196;2023-03-14T04:55:25;3.08;;;2.15;;
635;SDS011;302;50.206;8.196;2023-03-14T04:57:50;3.90;;;2.70;;
635;SDS011;302;50.206;8.196;2023-03-14T05:00:15;3.00;;;2.80;;
635;SDS011;302;50.206;8.196;2023-03-14T05:02:43;3.28;;;2.80;;
635;SDS011;302;50.206;8.196;2023-03-14T05:05:08;5.07;;;2.90;;
635;SDS011;302;50.206;8.196;2023-03-14T05:07:33;4.60;;;3.30;;
635;SDS011;302;50.206;8.196;2023-03-14T05:09:58;4.45;;;3.65;;
635;SDS011;302;50.206;8.196;2023-03-14T05:12:23;3.67;;;2.60;;
635;SDS011;302;50.206;8.196;2023-03-14T05:14:48;2.97;;;2.50;;
635;SDS011;302;50.206;8.196;2023-03-14T05:17:13;3.65;;;2.30;;
635;SDS011;302;50.206;8.196;2023-03-14T05:19:39;3.80;;;3.07;;
635;SDS011;302;50.206;8.196;2023-03-14T05:22:04;2.80;;;2.60;;
635;SDS011;302;50.206;8.196;2023-03-14T05:24:30;3.88;;;2.40;;
635;SDS011;302;50.206;8.196;2023-03-14T05:26:55;2.22;;;2.03;;
635;SDS011;302;50.206;8.196;2023-03-14T05:29:20;5.20;;;2.65;;
635;SDS011;302;50.206;8.196;2023-03-14T05:31:45;4.40;;;2.92;;
635;SDS011;302;50.206;8.196;2023-03-14T05:34:10;4.50;;;2.67;;
635;SDS011;302;50.206;8.196;2023-03-14T05:36:35;4.93;;;2.55;;
635;SDS011;302;50.206;8.196;2023-03-14T05:39:00;3.23;;;1.87;;
635;SDS011;302;50.206;8.196;2023-03-14T05:41:25;3.27;;;1.87;;
635;SDS011;302;50.206;8.196;2023-03-14T05:43:51;2.20;;;2.10;;
635;SDS011;302;50.206;8.196;2023-03-14T05:46:16;5.00;;;2.33;;
635;SDS011;302;50.206;8.196;2023-03-14T05:48:41;2.27;;;1.70;;
635;SDS011;302;50.206;8.196;2023-03-14T05:51:06;2.00;;;1.80;;
635;SDS011;302;50.206;8.196;2023-03-14T05:53:31;2.63;;;1.33;;
635;SDS011;302;50.206;8.196;2023-03-14T05:55:56;1.50;;;1.13;;
635;SDS011;302;50.206;8.196;2023-03-14T05:58:22;2.70;;;1.60;;
635;SDS011;302;50.206;8.196;2023-03-14T06:00:47;4.00;;;1.07;;
635;SDS011;302;50.206;8.196;2023-03-14T06:03:12;2.53;;;0.97;;
635;SDS011;302;50.206;8.196;2023-03-14T06:05:37;1.13;;;0.70;;
635;SDS011;302;50.206;8.196;2023-03-14T06:08:03;1.23;;;0.83;;
635;SDS011;302;50.206;8.196;2023-03-14T06:10:28;1.70;;;0.97;;
635;SDS011;302;50.206;8.196;2023-03-14T06:12:53;1.47;;;0.90;;
635;SDS011;302;50.206;8.196;2023-03-14T06:15:18;1.83;;;0.90;;
635;SDS011;302;50.206;8.196;2023-03-14T06:17:43;1.47;;;0.90;;
635;SDS011;302;50.206;8.196;2023-03-14T06:20:09;2.25;;;1.00;;
635;SDS011;302;50.206;8.196;2023-03-14T06:22:34;1.70;;;0.90;;
635;SDS011;302;50.206;8.196;2023-03-14T06:24:59;1.67;;;0.90;;
635;SDS011;302;50.206;8.196;2023-03-14T06:27:24;1.80;;;1.30;;
635;SDS011;302;50.206;8.196;2023-03-14T06:29:50;2.03;;;1.20;;
635;SDS011;302;50.206;8.196;2023-03-14T06:32:15;1.80;;;1.02;;
635;SDS011;302;50.206;8.196;2023-03-14T06:34:40;1.30;;;1.10;;
635;SDS011;302;50.206;8.196;2023-03-14T06:37:05;1.60;;;1.30;;
635;SDS011;302;50.206;8.196;2023-03-14T06:39:31;2.73;;;1.47;;
635;SDS011;302;50.206;8.196;2023-03-14T06:41:56;1.93;;;1.13;;
635;SDS011;302;50.206;8.196;2023-03-14T06:44:21;1.13;;;0.93;;
635;SDS011;302;50.206;8.196;2023-03-14T06:46:46;1.97;;;1.00;;
635;SDS011;302;50.206;8.196;2023-03-14T06:49:12;1.17;;;0.93;;
635;SDS011;302;50.206;8.196;2023-03-14T06:51:37;3.63;;;1.37;;
635;SDS011;302;50.206;8.196;2023-03-14T06:54:02;3.35;;;1.23;;
635;SDS011;302;50.206;8.196;2023-03-14T06:56:27;2.00;;;0.97;;
635;SDS011;302;50.206;8.196;2023-03-14T06:58:52;1.73;;;1.10;;
635;SDS011;302;50.206;8.196;2023-03-14T07:01:23;2.03;;;1.27;;
635;SDS011;302;50.206;8.196;2023-03-14T07:03:48;1.73;;;1.20;;
635;SDS011;302;50.206;8.196;2023-03-14T07:06:13;1.97;;;1.20;;
635;SDS011;302;50.206;8.196;2023-03-14T07:08:39;1.50;;;1.30;;
635;SDS011;302;50.206;8.196;2023-03-14T07:11:04;1.83;;;1.03;;
635;SDS011;302;50.206;8.196;2023-03-14T07:13:29;3.10;;;1.50;;
635;SDS011;302;50.206;8.196;2023-03-14T07:15:54;3.13;;;1.48;;
635;SDS011;302;50.206;8.196;2023-03-14T07:18:19;1.87;;;1.50;;
635;SDS011;302;50.206;8.196;2023-03-14T07:20:45;1.60;;;1.50;;
635;SDS011;302;50.206;8.196;2023-03-14T07:23:10;3.60;;;1.60;;
635;SDS011;302;50.206;8.196;2023-03-14T07:25:35;1.53;;;1.43;;
635;SDS011;302;50.206;8.196;2023-03-14T07:28:00;1.90;;;1.27;;
635;SDS011;302;50.206;8.196;2023-03-14T07:30:26;1.30;;;1.00;;
635;SDS011;302;50.206;8.196;2023-03-14T07:32:51;2.07;;;1.30;;
635;SDS011;302;50.206;8.196;2023-03-14T07:35:16;1.80;;;1.17;;
635;SDS011;302;50.206;8.196;2023-03-14T07:37:41;2.40;;;1.20;;
635;SDS011;302;50.206;8.196;2023-03-14T07:40:06;2.07;;;1.07;;
635;SDS011;302;50.206;8.196;2023-03-14T07:42:32;1.90;;;1.20;;
635;SDS011;302;50.206;8.196;2023-03-14T07:44:57;1.38;;;1.02;;
635;SDS011;302;50.206;8.196;2023-03-14T07:47:22;2.70;;;1.10;;
635;SDS011;302;50.206;8.196;2023-03-14T07:49:47;2.30;;;1.33;;
635;SDS011;302;50.206;8.196;2023-03-14T07:52:12;2.20;;;1.30;;
635;SDS011;302;50.206;8.196;2023-03-14T07:54:37;1.23;;;1.08;;
635;SDS011;302;50.206;8.196;2023-03-14T07:57:03;2.45;;;1.58;;
635;SDS011;302;50.206;8.196;2023-03-14T07:59:28;2.10;;;1.20;;
635;SDS011;302;50.206;8.196;2023-03-14T08:01:54;2.53;;;1.10;;
635;SDS011;302;50.206;8.196;2023-03-14T08:04:19;2.97;;;1.58;;
635;SDS011;302;50.206;8.196;2023-03-14T08:06:44;1.23;;;1.00;;
635;SDS011;302;50.206;8.196;2023-03-14T08:09:09;1.00;;;0.90;;
635;SDS011;302;50.206;8.196;2023-03-14T08:11:34;3.93;;;1.40;;
635;SDS011;302;50.206;8.196;2023-03-14T08:13:59;3.73;;;1.20;;
635;SDS011;302;50.206;8.196;2023-03-14T08:16:24;1.75;;;1.27;;
635;SDS011;302;50.206;8.196;2023-03-14T08:18:50;1.20;;;0.87;;
635;SDS011;302;50.206;8.196;2023-03-14T08:21:15;1.60;;;0.90;;
635;SDS011;302;50.206;8.196;2023-03-14T08:23:40;1.37;;;1.20;;
635;SDS011;302;50.206;8.196;2023-03-14T08:26:06;2.00;;;1.20;;
635;SDS011;302;50.206;8.196;2023-03-14T08:28:31;1.30;;;0.80;;
635;SDS011;302;50.206;8.196;2023-03-14T08:30:58;1.42;;;1.00;;
635;SDS011;302;50.206;8.196;2023-03-14T08:33:23;2.40;;;1.10;;
635;SDS011;302;50.206;8.196;2023-03-14T08:35:51;1.63;;;0.97;;
635;SDS011;302;50.206;8.196;2023-03-14T08:38:16;1.20;;;1.00;;
635;SDS011;302;50.206;8.196;2023-03-14T08:40:41;1.42;;;0.93;;
635;SDS011;302;50.206;8.196;2023-03-14T08:43:07;1.70;;;0.88;;
635;SDS011;302;50.206;8.196;2023-03-14T08:45:32;1.23;;;1.05;;
635;SDS011;302;50.206;8.196;2023-03-14T08:47:57;1.10;;;0.90;;
635;SDS011;302;50.206;8.196;2023-03-14T08:50:22;1.40;;;1.20;;
635;SDS011;302;50.206;8.196;2023-03-14T08:52:49;1.85;;;1.05;;
635;SDS011;302;50.206;8.196;2023-03-14T08:55:14;1.87;;;1.10;;
635;SDS011;302;50.206;8.196;2023-03-14T08:57:39;3.20;;;1.07;;
635;SDS011;302;50.206;8.196;2023-03-14T09:00:05;3.00;;;1.20;;
635;SDS011;302;50.206;8.196;2023-03-14T09:02:35;1.20;;;0.98;;
635;SDS011;302;50.206;8.196;2023-03-14T09:05:00;2.07;;;1.43;;
635;SDS011;302;50.206;8.196;2023-03-14T09:07:25;3.33;;;1.30;;
635;SDS011;302;50.206;8.196;2023-03-14T09:09:50;1.55;;;0.93;;
635;SDS011;302;50.206;8.196;2023-03-14T09:12:16;1.80;;;1.03;;
635;SDS011;302;50.206;8.196;2023-03-14T09:14:41;1.30;;;1.03;;
635;SDS011;302;50.206;8.196;2023-03-14T09:17:06;1.20;;;1.10;;
635;SDS011;302;50.206;8.196;2023-03-14T09:19:31;1.63;;;0.80;;
635;SDS011;302;50.206;8.196;2023-03-14T09:21:57;1.10;;;0.67;;
635;SDS011;302;50.206;8.196;2023-03-14T09:24:22;1.55;;;0.70;;
635;SDS011;302;50.206;8.196;2023-03-14T09:26:47;1.63;;;0.90;;
635;SDS011;302;50.206;8.196;2023-03-14T09:29:12;2.10;;;0.97;;
635;SDS011;302;50.206;8.196;2023-03-14T09:31:37;1.20;;;0.80;;
635;SDS011;302;50.206;8.196;2023-03-14T09:34:02;1.30;;;0.80;;
635;SDS011;302;50.206;8.196;2023-03-14T09:36:28;1.10;;;0.80;;
635;SDS011;302;50.206;8.196;2023-03-14T09:38:53;1.40;;;1.10;;
635;SDS011;302;50.206;8.196;2023-03-14T09:41:21;1.10;;;0.60;;
635;SDS011;302;50.206;8.196;2023-03-14T09:43:48;1.65;;;1.13;;
635;SDS011;302;50.206;8.196;2023-03-14T09:46:15;1.10;;;0.90;;
635;SDS011;302;50.206;8.196;2023-03-14T09:48:41;1.97;;;1.07;;
635;SDS011;302;50.206;8.196;2023-03-14T09:51:10;1.30;;;1.00;;
635;SDS011;302;50.206;8.196;2023-03-14T09:53:40;1.73;;;1.25;;
635;SDS011;302;50.206;8.196;2023-03-14T09:56:11;1.42;;;1.30;;
635;SDS011;302;50.206;8.196;2023-03-14T09:58:37;2.17;;;1.00;;
635;SDS011;302;50.206;8.196;2023-03-14T10:01:04;1.20;;;1.10;;
635;SDS011;302;50.206;8.196;2023-03-14T10:03:31;3.70;;;1.30;;
635;SDS011;302;50.206;8.196;2023-03-14T10:05:56;1.80;;;1.25;;
635;SDS011;302;50.206;8.196;2023-03-14T10:08:21;1.33;;;1.13;;
635;SDS011;302;50.206;8.196;2023-03-14T10:10:47;1.30;;;1.20;;
635;SDS011;302;50.206;8.196;2023-03-14T10:15:40;2.00;;;1.33;;
635;SDS011;302;50.206;8.196;2023-03-14T10:18:09;1.70;;;1.60;;
635;SDS011;302;50.206;8.196;2023-03-14T10:20:38;1.80;;;1.55;;
635;SDS011;302;50.206;8.196;2023-03-14T10:23:04;2.40;;;1.50;;
635;SDS011;302;50.206;8.196;2023-03-14T10:25:32;2.42;;;1.20;;
635;SDS011;302;50.206;8.196;2023-03-14T10:27:57;1.50;;;1.40;;
635;SDS011;302;50.206;8.196;2023-03-14T10:33:11;1.80;;;1.70;;
635;SDS011;302;50.206;8.196;2023-03-14T10:35:36;1.77;;;1.55;;
635;SDS011;302;50.206;8.196;2023-03-14T10:38:02;1.93;;;1.67;;
635;SDS011;302;50.206;8.196;2023-03-14T10:40:30;2.03;;;1.92;;
635;SDS011;302;50.206;8.196;2023-03-14T10:42:56;1.70;;;1.60;;
635;SDS011;302;50.206;8.196;2023-03-14T10:47:58;2.10;;;1.85;;
635;SDS011;302;50.206;8.196;2023-03-14T10:50:25;2.00;;;1.90;;
635;SDS011;302;50.206;8.196;2023-03-14T10:52:51;1.70;;;1.60;;
635;SDS011;302;50.206;8.196;2023-03-14T10:55:16;2.72;;;1.73;;
635;SDS011;302;50.206;8.196;2023-03-14T10:57:42;1.75;;;1.23;;
635;SDS011;302;50.206;8.196;2023-03-14T11:02:42;2.13;;;1.92;;
635;SDS011;302;50.206;8.196;2023-03-14T11:07:52;1.40;;;1.10;;
635;SDS011;302;50.206;8.196;2023-03-14T11:10:24;1.90;;;0.90;;
635;SDS011;302;50.206;8.196;2023-03-14T11:20:29;0.90;;;0.63;;
635;SDS011;302;50.206;8.196;2023-03-14T11:28:29;0.90;;;0.50;;
635;SDS011;302;50.206;8.196;2023-03-14T11:31:00;0.90;;;0.50;;
635;SDS011;302;50.206;8.196;2023-03-14T11:33:28;0.80;;;0.50;;
635;SDS011;302;50.206;8.196;2023-03-14T11:39:18;1.88;;;0.60;;
635;SDS011;302;50.206;8.196;2023-03-14T11:41:12;1.20;;;0.57;;
635;SDS011;302;50.206;8.196;2023-03-14T11:43:39;1.98;;;0.80;;
635;SDS011;302;50.206;8.196;2023-03-14T11:46:23;3.00;;;1.10;;
635;SDS011;302;50.206;8.196;2023-03-14T11:48:57;3.25;;;2.15;;
635;SDS011;302;50.206;8.196;2023-03-14T11:51:24;1.25;;;1.08;;
635;SDS011;302;50.206;8.196;2023-03-14T11:53:54;2.95;;;2.65;;
635;SDS011;302;50.206;8.196;2023-03-14T11:56:34;1.23;;;0.88;;
635;SDS011;302;50.206;8.196;2023-03-14T11:59:15;1.20;;;0.95;;
635;SDS011;302;50.206;8.196;2023-03-14T12:01:57;2.40;;;0.90;;
635;SDS011;302;50.206;8.196;2023-03-14T12:06:49;1.25;;;0.90;;
635;SDS011;302;50.206;8.196;2023-03-14T12:09:15;1.10;;;1.00;;
635;SDS011;302;50.206;8.196;2023-03-14T12:11:52;1.25;;;0.90;;
635;SDS011;302;50.206;8.196;2023-03-14T12:17:03;1.00;;;0.90;;
635;SDS011;302;50.206;8.196;2023-03-14T12:19:29;1.00;;;0.80;;
635;SDS011;302;50.206;8.196;2023-03-14T12:22:05;1.80;;;1.70;;
635;SDS011;302;50.206;8.196;2023-03-14T12:24:34;1.30;;;1.20;;
635;SDS011;302;50.206;8.196;2023-03-14T12:27:01;1.30;;;1.15;;
635;SDS011;302;50.206;8.196;2023-03-14T12:29:27;0.98;;;0.88;;
635;SDS011;302;50.206;8.196;2023-03-14T12:34:32;1.10;;;0.95;;
635;SDS011;302;50.206;8.196;2023-03-14T12:42:35;1.60;;;1.50;;
635;SDS011;302;50.206;8.196;2023-03-14T12:45:24;2.40;;;1.85;;
635;SDS011;302;50.206;8.196;2023-03-14T12:47:56;1.95;;;1.75;;
635;SDS011;302;50.206;8.196;2023-03-14T12:50:26;2.00;;;1.90;;
635;SDS011;302;50.206;8.196;2023-03-14T12:53:05;1.70;;;1.60;;
635;SDS011;302;50.206;8.196;2023-03-14T13:00:39;1.90;;;1.80;;
635;SDS011;302;50.206;8.196;2023-03-14T13:05:59;2.95;;;1.30;;
635;SDS011;302;50.206;8.196;2023-03-14T13:08:35;1.85;;;1.55;;
635;SDS011;302;50.206;8.196;2023-03-14T13:11:01;1.40;;;1.00;;
635;SDS011;302;50.206;8.196;2023-03-14T13:13:26;1.77;;;1.40;;
635;SDS011;302;50.206;8.196;2023-03-14T13:15:56;1.17;;;1.08;;
635;SDS011;302;50.206;8.196;2023-03-14T13:18:39;1.13;;;1.02;;
635;SDS011;302;50.206;8.196;2023-03-14T13:24:03;1.00;;;0.80;;
635;SDS011;302;50.206;8.196;2023-03-14T13:26:35;1.23;;;1.13;;
635;SDS011;302;50.206;8.196;2023-03-14T13:29:08;1.25;;;1.13;;
635;SDS011;302;50.206;8.196;2023-03-14T13:31:33;1.13;;;1.00;;
635;SDS011;302;50.206;8.196;2023-03-14T13:34:02;0.97;;;0.67;;
635;SDS011;302;50.206;8.196;2023-03-14T13:36:29;0.90;;;0.60;;
635;SDS011;302;50.206;8.196;2023-03-14T13:38:58;0.90;;;0.60;;
635;SDS011;302;50.206;8.196;2023-03-14T13:41:24;1.60;;;0.63;;
635;SDS011;302;50.206;8.196;2023-03-14T13:43:49;1.00;;;0.80;;
635;SDS011;302;50.206;8.196;2023-03-14T13:46:16;1.98;;;1.77;;
635;SDS011;302;50.206;8.196;2023-03-14T13:48:45;1.00;;;0.77;;
635;SDS011;302;50.206;8.196;2023-03-14T13:51:12;1.00;;;0.60;;
635;SDS011;302;50.206;8.196;2023-03-14T13:53:44;1.10;;;0.90;;
635;SDS011;302;50.206;8.196;2023-03-14T13:56:10;0.80;;;0.50;;
635;SDS011;302;50.206;8.196;2023-03-14T13:58:36;1.00;;;0.70;;
635;SDS011;302;50.206;8.196;2023-03-14T14:01:06;1.27;;;1.00;;
635;SDS011;302;50.206;8.196;2023-03-14T14:03:37;0.95;;;0.70;;
635;SDS011;302;50.206;8.196;2023-03-14T14:06:03;0.90;;;0.52;;
635;SDS011;302;50.206;8.196;2023-03-14T14:08:28;1.50;;;1.30;;
635;SDS011;302;50.206;8.196;2023-03-14T14:10:55;1.10;;;1.00;;
635;SDS011;302;50.206;8.196;2023-03-14T14:13:22;1.20;;;1.00;;
635;SDS011;302;50.206;8.196;2023-03-14T14:15:48;1.20;;;0.90;;
635;SDS011;302;50.206;8.196;2023-03-14T14:18:16;1.67;;;1.58;;
635;SDS011;302;50.206;8.196;2023-03-14T14:20:43;2.08;;;1.70;;
635;SDS011;302;50.206;8.196;2023-03-14T14:23:12;0.98;;;0.88;;
635;SDS011;302;50.206;8.196;2023-03-14T14:25:38;1.60;;;1.50;;
635;SDS011;302;50.206;8.196;2023-03-14T14:30:58;1.80;;;1.70;;
635;SDS011;302;50.206;8.196;2023-03-14T14:33:24;1.77;;;1.67;;
635;SDS011;302;50.206;8.196;2023-03-14T14:35:50;2.30;;;1.70;;
635;SDS011;302;50.206;8.196;2023-03-14T14:38:16;1.80;;;1.70;;
635;SDS011;302;50.206;8.196;2023-03-14T14:40:45;2.20;;;2.00;;
635;SDS011;302;50.206;8.196;2023-03-14T14:43:11;2.72;;;2.20;;
635;SDS011;302;50.206;8.196;2023-03-14T14:45:39;2.65;;;2.45;;
635;SDS011;302;50.206;8.196;2023-03-14T14:48:09;2.53;;;2.30;;
635;SDS011;302;50.206;8.196;2023-03-14T14:50:36;2.25;;;2.05;;
635;SDS011;302;50.206;8.196;2023-03-14T14:53:03;2.25;;;1.55;;
635;SDS011;302;50.206;8.196;2023-03-14T14:55:32;2.75;;;2.05;;
635;SDS011;302;50.206;8.196;2023-03-14T14:58:09;1.20;;;1.10;;
635;SDS011;302;50.206;8.196;2023-03-14T15:00:35;1.50;;;1.23;;
635;SDS011;302;50.206;8.196;2023-03-14T15:03:04;1.48;;;0.85;;
635;SDS011;302;50.206;8.196;2023-03-14T15:05:29;2.40;;;1.00;;
635;SDS011;302;50.206;8.196;2023-03-14T15:08:00;1.52;;;1.10;;
635;SDS011;302;50.206;8.196;2023-03-14T15:10:25;1.87;;;0.90;;
635;SDS011;302;50.206;8.196;2023-03-14T15:12:51;1.23;;;0.97;;
635;SDS011;302;50.206;8.196;2023-03-14T15:15:16;2.03;;;1.20;;
635;SDS011;302;50.206;8.196;2023-03-14T15:17:41;1.27;;;1.07;;
635;SDS011;302;50.206;8.196;2023-03-14T15:20:10;1.30;;;0.90;;
635;SDS011;302;50.206;8.196;2023-03-14T15:22:38;1.83;;;1.00;;
635;SDS011;302;50.206;8.196;2023-03-14T15:25:03;1.03;;;0.93;;
635;SDS011;302;50.206;8.196;2023-03-14T15:27:28;1.10;;;0.90;;
635;SDS011;302;50.206;8.196;2023-03-14T15:29:54;1.55;;;0.90;;
635;SDS011;302;50.206;8.196;2023-03-14T15:32:19;1.25;;;1.15;;
635;SDS011;302;50.206;8.196;2023-03-14T15:34:45;1.30;;;1.10;;
635;SDS011;302;50.206;8.196;2023-03-14T15:37:13;1.58;;;1.48;;
635;SDS011;302;50.206;8.196;2023-03-14T15:39:40;1.58;;;1.30;;
635;SDS011;302;50.206;8.196;2023-03-14T15:42:06;2.40;;;2.20;;
635;SDS011;302;50.206;8.196;2023-03-14T15:44:31;1.70;;;1.60;;
635;SDS011;302;50.206;8.196;2023-03-14T15:46:56;2.08;;;1.88;;
635;SDS011;302;50.206;8.196;2023-03-14T15:49:21;5.43;;;5.03;;
635;SDS011;302;50.206;8.196;2023-03-14T15:51:46;1.35;;;1.25;;
635;SDS011;302;50.206;8.196;2023-03-14T15:54:11;3.58;;;3.38;;
635;SDS011;302;50.206;8.196;2023-03-14T15:56:36;2.65;;;2.53;;
635;SDS011;302;50.206;8.196;2023-03-14T15:59:02;5.13;;;4.82;;
635;SDS011;302;50.206;8.196;2023-03-14T16:01:27;5.07;;;4.70;;
635;SDS011;302;50.206;8.196;2023-03-14T16:03:52;3.08;;;2.88;;
635;SDS011;302;50.206;8.196;2023-03-14T16:06:17;6.03;;;5.53;;
635;SDS011;302;50.206;8.196;2023-03-14T16:08:43;2.20;;;2.10;;
635;SDS011;302;50.206;8.196;2023-03-14T16:11:08;1.50;;;1.40;;
635;SDS011;302;50.206;8.196;2023-03-14T16:13:34;5.43;;;4.40;;
635;SDS011;302;50.206;8.196;2023-03-14T16:16:00;2.83;;;1.90;;
635;SDS011;302;50.206;8.196;2023-03-14T16:18:29;3.63;;;2.45;;
635;SDS011;302;50.206;8.196;2023-03-14T16:20:55;2.25;;;1.90;;
635;SDS011;302;50.206;8.196;2023-03-14T16:23:21;2.97;;;1.33;;
635;SDS011;302;50.206;8.196;2023-03-14T16:25:46;1.90;;;1.80;;
635;SDS011;302;50.206;8.196;2023-03-14T16:28:11;1.40;;;0.90;;
635;SDS011;302;50.206;8.196;2023-03-14T16:30:36;1.20;;;1.10;;
635;SDS011;302;50.206;8.196;2023-03-14T16:33:02;1.07;;;0.80;;
635;SDS011;302;50.206;8.196;2023-03-14T16:35:27;1.80;;;1.53;;
635;SDS011;302;50.206;8.196;2023-03-14T16:37:52;1.70;;;1.60;;
635;SDS011;302;50.206;8.196;2023-03-14T16:40:17;1.80;;;1.70;;
635;SDS011;302;50.206;8.196;2023-03-14T16:42:43;1.70;;;1.60;;